Time;durP1;ratioP1;P1;durP2;ratioP2;P2;SDS_P1;SDS_P2;PMS_P1;PMS_P2;Temp;Humidity;BMP_temperature;BMP_pressure;BME280_temperature;BME280_humidity;BME280_pressure;Samples;Min_cycle;Max_cycle;Signal;HPM_P1;HPM_P2
2022/11/17 00:01:50;;;;;;;3.67;2.27;;;12.90;97.00;;;;;;937670;148;27347;-79
2022/11/17 00:04:17;;;;;;;5.33;3.13;;;12.90;97.00;;;;;;938357;148;27377;-78
2022/11/17 00:06:43;;;;;;;3.00;2.23;;;12.90;97.00;;;;;;938117;148;27429;-78
2022/11/17 00:09:16;;;;;;;3.60;2.10;;;12.90;97.00;;;;;;938948;148;27357;-78
2022/11/17 00:14:32;;;;;;;1.90;1.80;;;12.90;96.90;;;;;;943678;147;27368;-78
2022/11/17 00:16:59;;;;;;;2.37;1.80;;;12.90;96.80;;;;;;943220;147;29220;-78
2022/11/17 00:22:10;;;;;;;3.53;1.83;;;12.90;96.80;;;;;;941665;147;27351;-78
2022/11/17 00:24:37;;;;;;;2.87;2.20;;;12.90;96.70;;;;;;943145;147;27562;-78
2022/11/17 00:27:03;;;;;;;2.77;1.70;;;12.90;96.80;;;;;;942559;147;27331;-78
2022/11/17 00:29:30;;;;;;;5.10;1.50;;;12.90;96.90;;;;;;936735;149;27494;-78
2022/11/17 00:34:41;;;;;;;5.33;2.33;;;12.90;96.90;;;;;;936238;149;27346;-78
2022/11/17 00:37:08;;;;;;;1.93;1.83;;;12.90;96.70;;;;;;938652;149;27449;-78
2022/11/17 00:39:35;;;;;;;3.13;1.83;;;12.90;96.70;;;;;;935138;149;27401;-78
2022/11/17 00:42:01;;;;;;;3.17;1.43;;;12.80;96.70;;;;;;934683;149;27388;-78
2022/11/17 00:44:28;;;;;;;3.17;1.80;;;12.80;96.70;;;;;;937965;149;27346;-78
2022/11/17 00:46:54;;;;;;;2.93;1.87;;;12.80;96.80;;;;;;936427;149;27316;-78
2022/11/17 00:49:24;;;;;;;3.80;1.80;;;12.70;96.90;;;;;;934556;149;27346;-78
2022/11/17 00:51:48;;;;;;;4.10;1.97;;;12.70;97.00;;;;;;936268;149;27354;-78
2022/11/17 00:54:14;;;;;;;3.00;1.87;;;12.70;97.20;;;;;;932358;149;27415;-79
2022/11/17 00:56:41;;;;;;;3.53;2.03;;;12.60;97.30;;;;;;937376;149;27389;-78
2022/11/17 00:59:07;;;;;;;2.27;1.83;;;12.70;97.40;;;;;;935114;149;27412;-78
2022/11/17 01:01:34;;;;;;;2.00;1.83;;;12.60;97.50;;;;;;936879;149;28157;-79
2022/11/17 01:04:03;;;;;;;2.43;1.73;;;12.60;97.60;;;;;;937125;149;27302;-77
2022/11/17 01:06:32;;;;;;;2.07;1.80;;;12.60;97.60;;;;;;934821;149;27401;-78
2022/11/17 01:08:59;;;;;;;4.13;2.30;;;12.50;97.60;;;;;;935909;149;27422;-78
2022/11/17 01:11:26;;;;;;;1.80;1.60;;;12.50;97.80;;;;;;937201;149;27420;-77
2022/11/17 01:13:52;;;;;;;2.57;2.00;;;12.50;98.00;;;;;;933937;149;27378;-78
2022/11/17 01:16:19;;;;;;;2.03;1.80;;;12.50;98.10;;;;;;936357;149;27377;-78
2022/11/17 01:18:45;;;;;;;2.67;1.93;;;12.40;98.20;;;;;;935172;149;27436;-80
2022/11/17 01:21:12;;;;;;;3.50;2.00;;;12.40;98.50;;;;;;935822;149;27366;-81
2022/11/17 01:23:38;;;;;;;2.20;1.50;;;12.40;98.50;;;;;;932727;149;27363;-80
2022/11/17 01:26:05;;;;;;;3.07;2.10;;;12.40;98.50;;;;;;934531;149;27614;-80
2022/11/17 01:28:32;;;;;;;3.00;1.93;;;12.30;98.60;;;;;;936141;149;27409;-80
2022/11/17 01:31:01;;;;;;;2.47;1.80;;;12.30;98.80;;;;;;935421;149;27383;-80
2022/11/17 01:33:28;;;;;;;2.13;1.73;;;12.30;99.00;;;;;;936253;149;27443;-80
2022/11/17 01:35:54;;;;;;;1.70;1.60;;;12.30;99.00;;;;;;935421;149;27427;-80
2022/11/17 01:38:21;;;;;;;3.20;1.97;;;12.30;99.20;;;;;;936460;149;27270;-80
2022/11/17 01:40:47;;;;;;;2.60;1.70;;;12.20;99.30;;;;;;936466;149;27782;-81
2022/11/17 01:43:14;;;;;;;2.00;1.80;;;12.20;99.40;;;;;;936595;149;27346;-80
2022/11/17 01:45:41;;;;;;;3.70;2.20;;;12.20;99.50;;;;;;935918;149;27357;-80
2022/11/17 01:48:07;;;;;;;2.63;1.97;;;12.20;99.50;;;;;;935424;149;27967;-80
2022/11/17 01:50:34;;;;;;;2.70;1.90;;;12.20;99.50;;;;;;935809;149;27418;-80
2022/11/17 01:53:00;;;;;;;2.67;1.80;;;12.20;99.50;;;;;;936395;149;27371;-78
2022/11/17 01:55:27;;;;;;;2.40;1.90;;;12.20;99.50;;;;;;934331;149;27374;-78
2022/11/17 01:57:54;;;;;;;3.90;1.80;;;12.20;99.60;;;;;;932283;149;27369;-77
2022/11/17 02:00:20;;;;;;;3.83;2.10;;;12.20;99.60;;;;;;929899;149;27516;-78
2022/11/17 02:02:47;;;;;;;2.77;1.73;;;12.20;99.70;;;;;;924196;154;27338;-78
2022/11/17 02:05:22;;;;;;;2.37;1.80;;;12.20;99.80;;;;;;924362;154;27382;-78
2022/11/17 02:07:48;;;;;;;2.63;1.70;;;12.20;99.80;;;;;;920794;154;27799;-78
2022/11/17 02:10:15;;;;;;;2.03;1.43;;;12.20;99.90;;;;;;935845;149;27426;-78
2022/11/17 02:12:41;;;;;;;2.57;1.70;;;12.20;99.90;;;;;;937868;149;27385;-78
2022/11/17 02:15:08;;;;;;;2.53;1.80;;;12.20;99.90;;;;;;937631;148;27326;-78
2022/11/17 02:17:35;;;;;;;4.13;2.20;;;12.20;99.90;;;;;;938937;151;27432;-78
2022/11/17 02:20:10;;;;;;;1.70;1.60;;;12.30;99.90;;;;;;937287;149;27457;-79
2022/11/17 02:22:39;;;;;;;2.30;1.80;;;12.30;99.90;;;;;;939376;151;27378;-78
2022/11/17 02:25:15;;;;;;;2.53;1.90;;;12.30;99.90;;;;;;937771;151;27331;-78
2022/11/17 02:27:53;;;;;;;1.80;1.70;;;12.30;99.90;;;;;;937901;149;27416;-78
2022/11/17 02:30:20;;;;;;;2.60;2.00;;;12.30;99.80;;;;;;939314;148;27331;-79
2022/11/17 02:32:46;;;;;;;3.20;1.60;;;12.30;99.80;;;;;;937562;151;27345;-78
2022/11/17 02:35:25;;;;;;;3.07;2.03;;;12.30;99.70;;;;;;919614;154;27338;-78
2022/11/17 02:38:04;;;;;;;3.73;1.97;;;12.30;99.70;;;;;;923862;151;27408;-77
2022/11/17 02:40:30;;;;;;;2.63;2.00;;;12.40;99.60;;;;;;926614;154;27369;-78
2022/11/17 02:45:44;;;;;;;3.10;1.93;;;12.40;99.70;;;;;;921282;154;27510;-79
2022/11/17 02:48:11;;;;;;;2.13;1.80;;;12.40;99.60;;;;;;938276;151;27995;-79
2022/11/17 02:50:38;;;;;;;1.63;1.50;;;12.40;99.60;;;;;;938701;151;27828;-79
2022/11/17 02:53:04;;;;;;;2.50;1.57;;;12.40;99.70;;;;;;939056;151;27301;-79
2022/11/17 02:55:32;;;;;;;1.63;1.53;;;12.40;99.70;;;;;;938890;151;27339;-79
2022/11/17 02:57:57;;;;;;;1.77;1.67;;;12.40;99.60;;;;;;938126;151;27381;-79
2022/11/17 03:00:24;;;;;;;1.50;1.40;;;12.40;99.50;;;;;;939235;151;27356;-79
2022/11/17 03:03:09;;;;;;;1.73;1.63;;;12.50;99.60;;;;;;939542;148;27406;-79
2022/11/17 03:05:54;;;;;;;1.70;1.60;;;12.50;99.60;;;;;;939034;148;27318;-79
2022/11/17 03:08:23;;;;;;;2.83;1.60;;;12.50;99.60;;;;;;938886;149;27994;-79
2022/11/17 03:11:07;;;;;;;1.70;1.57;;;12.50;99.60;;;;;;937334;151;27847;-79
2022/11/17 03:13:40;;;;;;;2.30;1.60;;;12.50;99.70;;;;;;921697;154;27893;-79
2022/11/17 03:16:09;;;;;;;3.10;1.90;;;12.50;99.50;;;;;;939267;151;27403;-79
2022/11/17 03:18:45;;;;;;;2.23;1.63;;;12.50;99.60;;;;;;924024;154;27321;-80
2022/11/17 03:21:21;;;;;;;2.20;1.70;;;12.50;99.60;;;;;;921698;154;27334;-79
2022/11/17 03:23:50;;;;;;;1.93;1.70;;;12.50;99.60;;;;;;921444;154;27339;-79
2022/11/17 03:26:17;;;;;;;2.13;1.70;;;12.50;99.70;;;;;;937612;148;27348;-78
2022/11/17 03:28:43;;;;;;;1.87;1.73;;;12.50;99.70;;;;;;937226;151;27331;-78
2022/11/17 03:31:10;;;;;;;3.50;2.35;;;12.50;99.80;;;;;;940330;149;27362;-79
2022/11/17 03:33:37;;;;;;;1.53;1.43;;;12.50;99.90;;;;;;925953;151;27447;-78
2022/11/17 03:36:09;;;;;;;2.30;1.40;;;12.50;99.90;;;;;;922182;152;27375;-79
2022/11/17 03:38:36;;;;;;;2.70;1.70;;;12.50;99.90;;;;;;921761;154;27446;-79
2022/11/17 03:41:02;;;;;;;1.50;1.32;;;12.60;99.90;;;;;;925997;154;27919;-78
2022/11/17 03:43:29;;;;;;;1.87;1.30;;;12.60;99.90;;;;;;922955;154;27396;-78
2022/11/17 03:45:55;;;;;;;1.63;1.30;;;12.60;99.90;;;;;;922726;153;27407;-78
2022/11/17 03:48:30;;;;;;;1.27;1.20;;;12.60;99.90;;;;;;922730;154;27945;-79
2022/11/17 03:51:12;;;;;;;1.60;1.50;;;12.70;99.90;;;;;;940269;151;28046;-79
2022/11/17 03:53:39;;;;;;;1.40;1.30;;;12.70;99.90;;;;;;938268;151;27307;-79
2022/11/17 03:56:33;;;;;;;3.20;1.77;;;12.70;99.70;;;;;;939801;151;27301;-79
2022/11/17 03:58:59;;;;;;;1.30;1.20;;;12.70;99.70;;;;;;938926;149;27328;-79
2022/11/17 04:01:26;;;;;;;3.73;1.40;;;12.70;99.70;;;;;;934136;148;27468;-78
2022/11/17 04:03:52;;;;;;;3.10;1.50;;;12.70;99.70;;;;;;938900;148;27876;-78
2022/11/17 04:06:19;;;;;;;1.65;1.40;;;12.70;99.70;;;;;;936789;149;27370;-78
2022/11/17 04:08:46;;;;;;;2.83;1.60;;;12.80;99.80;;;;;;935726;149;27374;-78
2022/11/17 04:16:42;;;;;;;3.43;1.37;;;12.80;99.70;;;;;;936578;149;27310;-79
2022/11/17 04:19:08;;;;;;;1.60;1.50;;;12.80;99.60;;;;;;934907;149;27417;-78
2022/11/17 04:21:35;;;;;;;1.93;1.57;;;12.80;99.60;;;;;;938222;151;27340;-78
2022/11/17 04:24:02;;;;;;;2.08;1.77;;;12.90;99.60;;;;;;939224;151;27295;-78
2022/11/17 04:29:13;;;;;;;3.87;1.30;;;12.90;99.50;;;;;;920934;150;27465;-79
2022/11/17 04:31:39;;;;;;;1.63;1.20;;;12.90;99.30;;;;;;936859;148;27321;-78
2022/11/17 04:34:06;;;;;;;3.30;1.37;;;12.90;99.20;;;;;;936609;148;27457;-78
2022/11/17 04:36:42;;;;;;;1.47;1.20;;;13.00;99.20;;;;;;936613;148;27541;-78
2022/11/17 04:39:05;;;;;;;2.50;1.62;;;13.00;99.10;;;;;;934857;148;27375;-78
2022/11/17 04:44:16;;;;;;;2.08;1.22;;;13.00;98.80;;;;;;936893;148;27377;-79
2022/11/17 04:46:45;;;;;;;1.40;1.20;;;13.00;98.70;;;;;;937477;148;27914;-78
2022/11/17 04:49:12;;;;;;;2.13;1.20;;;13.00;98.70;;;;;;937938;148;27433;-77
2022/11/17 04:51:38;;;;;;;2.30;1.40;;;13.00;98.90;;;;;;938571;148;27765;-78
2022/11/17 04:54:05;;;;;;;1.40;1.30;;;13.00;99.10;;;;;;938647;148;27333;-78
2022/11/17 04:56:31;;;;;;;1.95;1.70;;;13.00;99.20;;;;;;937106;148;27349;-78
2022/11/17 04:58:58;;;;;;;1.63;1.20;;;13.00;99.40;;;;;;937100;148;27341;-77
2022/11/17 05:01:25;;;;;;;1.33;1.23;;;12.90;99.60;;;;;;938246;148;27391;-77
2022/11/17 05:03:54;;;;;;;1.70;1.60;;;12.80;99.90;;;;;;937194;148;27520;-79
2022/11/17 05:06:20;;;;;;;1.53;1.43;;;12.80;99.90;;;;;;939100;148;27311;-79
2022/11/17 05:08:47;;;;;;;3.45;1.67;;;12.70;99.90;;;;;;936154;148;27504;-79
2022/11/17 05:13:58;;;;;;;1.57;1.47;;;12.60;99.90;;;;;;940239;148;27335;-79
2022/11/17 05:19:10;;;;;;;1.82;1.72;;;12.40;99.90;;;;;;937520;148;27478;-78
2022/11/17 05:21:36;;;;;;;2.17;1.50;;;12.40;99.90;;;;;;927612;150;27809;-78
2022/11/17 05:24:03;;;;;;;2.03;1.70;;;12.40;99.90;;;;;;934285;150;27912;-78
2022/11/17 05:26:29;;;;;;;2.13;1.27;;;12.30;99.90;;;;;;930080;150;28451;-78
2022/11/17 05:28:56;;;;;;;1.77;1.67;;;12.30;99.90;;;;;;932977;150;27393;-78
2022/11/17 05:31:23;;;;;;;2.23;1.77;;;12.30;99.90;;;;;;932611;150;27307;-78
2022/11/17 05:33:49;;;;;;;3.30;1.67;;;12.30;99.90;;;;;;931660;150;27248;-78
2022/11/17 05:36:16;;;;;;;2.63;1.73;;;12.30;99.90;;;;;;931365;150;27477;-78
2022/11/17 05:38:42;;;;;;;1.93;1.50;;;12.20;99.90;;;;;;930812;150;27465;-77
2022/11/17 05:41:09;;;;;;;1.67;1.50;;;12.20;99.90;;;;;;932137;150;27471;-77
2022/11/17 05:43:35;;;;;;;1.80;1.53;;;12.20;99.90;;;;;;933549;150;27319;-78
2022/11/17 05:46:02;;;;;;;1.90;1.40;;;12.20;99.90;;;;;;932608;150;27368;-78
2022/11/17 05:48:29;;;;;;;2.77;1.60;;;12.10;99.90;;;;;;933374;150;27362;-78
2022/11/17 05:50:55;;;;;;;1.63;1.50;;;12.10;99.90;;;;;;920916;150;27554;-78
2022/11/17 05:53:22;;;;;;;1.70;1.60;;;12.10;99.90;;;;;;939259;148;27332;-78
2022/11/17 05:55:48;;;;;;;2.00;1.73;;;12.10;99.90;;;;;;938523;148;27416;-78
2022/11/17 05:58:18;;;;;;;2.60;1.53;;;12.10;99.90;;;;;;938851;148;27327;-78
2022/11/17 06:00:44;;;;;;;1.50;1.40;;;12.10;99.90;;;;;;937353;148;27364;-78
2022/11/17 06:03:14;;;;;;;1.57;1.47;;;12.10;99.90;;;;;;936770;148;27507;-78
2022/11/17 06:05:40;;;;;;;1.57;1.40;;;12.10;99.90;;;;;;921678;150;27320;-79
2022/11/17 06:08:07;;;;;;;1.20;1.20;;;12.10;99.90;;;;;;936628;148;27458;-78
2022/11/17 06:10:34;;;;;;;1.90;1.73;;;12.10;99.90;;;;;;937477;148;27327;-79
2022/11/17 06:13:00;;;;;;;3.57;1.43;;;12.10;99.90;;;;;;937008;148;27751;-79
2022/11/17 06:15:27;;;;;;;1.63;1.50;;;12.10;99.90;;;;;;938114;148;27813;-78
2022/11/17 06:17:53;;;;;;;1.40;1.30;;;12.10;99.90;;;;;;935869;148;28791;-78
2022/11/17 06:20:27;;;;;;;1.57;1.47;;;12.10;99.90;;;;;;938374;148;27432;-80
2022/11/17 06:22:53;;;;;;;2.33;1.60;;;12.10;99.90;;;;;;935264;148;27415;-80
2022/11/17 06:25:19;;;;;;;2.03;1.37;;;12.10;99.90;;;;;;938175;148;27754;-78
2022/11/17 06:27:46;;;;;;;3.93;1.53;;;12.10;99.90;;;;;;937629;148;27475;-78
2022/11/17 06:30:15;;;;;;;2.10;1.70;;;12.10;99.90;;;;;;938281;148;27393;-78
2022/11/17 06:32:42;;;;;;;3.13;1.83;;;12.20;99.90;;;;;;938470;148;27480;-78
2022/11/17 06:35:08;;;;;;;2.47;1.50;;;12.10;99.90;;;;;;937872;148;27303;-79
2022/11/17 06:37:35;;;;;;;3.80;1.40;;;12.10;99.90;;;;;;936068;148;27306;-78
2022/11/17 06:40:02;;;;;;;2.30;1.50;;;12.10;99.90;;;;;;937169;148;27370;-78
2022/11/17 06:45:13;;;;;;;2.03;1.40;;;12.10;99.90;;;;;;938425;148;27379;-78
2022/11/17 06:47:40;;;;;;;1.47;1.30;;;12.10;99.90;;;;;;937392;148;27331;-79
2022/11/17 06:50:06;;;;;;;1.53;1.40;;;12.20;99.90;;;;;;938657;148;27424;-78
2022/11/17 06:52:33;;;;;;;1.63;1.20;;;12.20;99.90;;;;;;938716;148;27318;-79
2022/11/17 06:54:59;;;;;;;1.40;1.30;;;12.20;99.90;;;;;;938260;148;27361;-78
2022/11/17 06:57:26;;;;;;;1.83;1.60;;;12.20;99.90;;;;;;938429;148;27461;-78
2022/11/17 06:59:53;;;;;;;2.50;1.53;;;12.20;99.90;;;;;;936732;148;27413;-78
2022/11/17 07:02:19;;;;;;;1.57;1.47;;;12.20;99.90;;;;;;938115;148;27422;-78
2022/11/17 07:04:46;;;;;;;3.00;1.50;;;12.20;99.90;;;;;;937437;150;27288;-79
2022/11/17 07:07:12;;;;;;;1.73;1.50;;;12.20;99.90;;;;;;941340;148;27355;-79
2022/11/17 07:09:39;;;;;;;2.07;1.40;;;12.20;99.90;;;;;;941267;151;27476;-78
2022/11/17 07:12:06;;;;;;;2.30;1.40;;;12.30;99.90;;;;;;935755;151;27372;-78
2022/11/17 07:14:32;;;;;;;1.63;1.53;;;12.30;99.90;;;;;;938818;151;27704;-78
2022/11/17 07:16:59;;;;;;;2.77;1.60;;;12.30;99.90;;;;;;940043;148;27359;-78
2022/11/17 07:19:25;;;;;;;2.03;1.50;;;12.30;99.90;;;;;;937868;149;27333;-79
2022/11/17 07:21:52;;;;;;;2.93;1.60;;;12.40;99.90;;;;;;940582;151;27812;-78
2022/11/17 07:24:19;;;;;;;2.10;1.50;;;12.30;99.90;;;;;;937824;148;28861;-78
2022/11/17 07:26:45;;;;;;;1.57;1.47;;;12.40;99.90;;;;;;925383;154;27334;-78
2022/11/17 07:29:12;;;;;;;1.67;1.57;;;12.40;99.90;;;;;;923465;152;27415;-78
2022/11/17 07:31:38;;;;;;;2.10;1.40;;;12.40;99.90;;;;;;925078;154;27835;-79
2022/11/17 07:34:05;;;;;;;1.52;1.40;;;12.40;99.90;;;;;;923190;153;27452;-78
2022/11/17 07:36:31;;;;;;;2.80;1.60;;;12.40;99.90;;;;;;937939;148;27485;-78
2022/11/17 07:38:58;;;;;;;1.73;1.60;;;12.40;99.90;;;;;;937865;149;27430;-78
2022/11/17 07:41:25;;;;;;;1.70;1.60;;;12.40;99.90;;;;;;936845;151;27352;-78
2022/11/17 07:43:51;;;;;;;2.07;1.50;;;12.40;99.90;;;;;;936140;151;27315;-78
2022/11/17 07:46:18;;;;;;;2.07;1.50;;;12.50;99.90;;;;;;939705;148;27435;-79
2022/11/17 07:48:44;;;;;;;3.40;1.40;;;12.50;99.90;;;;;;937646;151;27452;-78
2022/11/17 07:51:12;;;;;;;2.93;1.63;;;12.50;99.90;;;;;;923894;151;27358;-78
2022/11/17 07:53:38;;;;;;;1.40;1.30;;;12.50;99.90;;;;;;924271;154;27375;-78
2022/11/17 07:56:04;;;;;;;1.50;1.40;;;12.40;99.90;;;;;;923622;152;27693;-78
2022/11/17 07:58:31;;;;;;;2.23;1.53;;;12.40;99.90;;;;;;920528;151;27334;-78
2022/11/17 08:00:57;;;;;;;2.70;1.50;;;12.40;99.90;;;;;;937393;149;27425;-78
2022/11/17 08:03:24;;;;;;;2.07;1.87;;;12.40;99.90;;;;;;940547;148;27362;-78
2022/11/17 08:05:52;;;;;;;1.72;1.57;;;12.40;99.90;;;;;;937775;148;27345;-78
2022/11/17 08:08:17;;;;;;;2.83;1.70;;;12.40;99.90;;;;;;937521;148;27387;-78
2022/11/17 08:10:44;;;;;;;1.80;1.70;;;12.40;99.90;;;;;;935812;149;27310;-79
2022/11/17 08:13:11;;;;;;;2.03;1.73;;;12.40;99.90;;;;;;935492;149;27384;-78
2022/11/17 08:15:37;;;;;;;2.33;1.80;;;12.40;99.90;;;;;;933401;149;27444;-78
2022/11/17 08:18:04;;;;;;;1.47;1.37;;;12.40;99.90;;;;;;935743;149;27349;-78
2022/11/17 08:20:30;;;;;;;1.50;1.40;;;12.50;99.90;;;;;;933577;149;27297;-78
2022/11/17 08:22:57;;;;;;;2.10;1.90;;;12.50;99.90;;;;;;934142;149;27418;-78
2022/11/17 08:25:23;;;;;;;1.53;1.43;;;12.50;99.90;;;;;;935385;149;27436;-79
2022/11/17 08:27:50;;;;;;;1.60;1.50;;;12.60;99.90;;;;;;937272;149;27461;-78
2022/11/17 08:30:19;;;;;;;1.83;1.60;;;12.60;99.90;;;;;;936541;149;27283;-78
2022/11/17 08:32:48;;;;;;;1.77;1.67;;;12.70;99.90;;;;;;935087;149;27455;-78
2022/11/17 08:35:15;;;;;;;1.63;1.50;;;12.70;99.90;;;;;;934981;149;27328;-79
2022/11/17 08:37:42;;;;;;;1.73;1.50;;;12.80;99.90;;;;;;936082;149;27482;-78
2022/11/17 08:40:08;;;;;;;1.30;1.20;;;12.90;99.90;;;;;;938366;149;27429;-78
2022/11/17 08:42:35;;;;;;;1.57;1.47;;;12.90;99.90;;;;;;935202;149;27432;-78
2022/11/17 08:45:01;;;;;;;1.30;1.20;;;13.00;99.90;;;;;;935095;149;27381;-79
2022/11/17 08:47:28;;;;;;;1.82;1.72;;;13.10;99.90;;;;;;937342;149;27420;-78
2022/11/17 08:49:55;;;;;;;2.10;1.43;;;13.10;99.90;;;;;;936582;149;27491;-79
2022/11/17 08:52:21;;;;;;;1.20;1.10;;;13.20;99.90;;;;;;933371;149;27450;-78
2022/11/17 08:54:49;;;;;;;1.73;1.20;;;13.30;99.90;;;;;;934669;149;27301;-78
2022/11/17 08:57:14;;;;;;;2.70;1.20;;;13.30;99.90;;;;;;933996;149;27440;-78
2022/11/17 08:59:41;;;;;;;2.90;1.10;;;13.40;99.90;;;;;;935376;149;27331;-79
2022/11/17 09:02:07;;;;;;;1.17;0.90;;;13.50;99.90;;;;;;935562;149;27362;-78
2022/11/17 09:04:34;;;;;;;2.08;0.80;;;13.50;99.90;;;;;;936959;149;27429;-79
2022/11/17 09:07:01;;;;;;;3.05;1.30;;;13.60;99.90;;;;;;935383;149;27458;-79
2022/11/17 09:09:27;;;;;;;2.55;1.30;;;13.70;99.90;;;;;;937929;149;27413;-78
2022/11/17 09:11:54;;;;;;;2.15;0.98;;;13.80;99.90;;;;;;935162;149;27794;-79
2022/11/17 09:14:20;;;;;;;2.65;1.22;;;13.90;99.90;;;;;;935320;149;27359;-79
2022/11/17 09:16:47;;;;;;;1.77;1.05;;;14.00;99.90;;;;;;935549;149;27445;-79
2022/11/17 09:19:14;;;;;;;2.00;1.02;;;14.10;99.90;;;;;;935199;149;27365;-79
2022/11/17 09:21:40;;;;;;;1.80;1.05;;;14.20;99.90;;;;;;936338;149;27457;-79
2022/11/17 09:24:07;;;;;;;2.58;0.80;;;14.30;99.90;;;;;;936369;149;27419;-79
2022/11/17 09:26:33;;;;;;;1.98;1.22;;;14.40;99.90;;;;;;936395;149;27283;-79
2022/11/17 09:29:00;;;;;;;4.75;1.20;;;14.50;99.90;;;;;;938569;149;27485;-80
2022/11/17 09:31:27;;;;;;;1.80;1.10;;;14.50;99.90;;;;;;934927;149;27369;-79
2022/11/17 09:33:53;;;;;;;3.98;1.72;;;14.60;99.90;;;;;;935513;149;27391;-79
2022/11/17 09:36:20;;;;;;;1.32;0.70;;;14.70;99.90;;;;;;932387;149;27322;-79
2022/11/17 09:38:46;;;;;;;1.27;0.82;;;14.70;99.90;;;;;;935378;149;27468;-79
2022/11/17 09:41:16;;;;;;;2.55;1.20;;;14.80;99.90;;;;;;934438;149;27729;-80
2022/11/17 09:43:42;;;;;;;1.15;1.00;;;14.80;99.90;;;;;;935011;149;27381;-79
2022/11/17 09:46:11;;;;;;;1.30;1.20;;;14.90;99.90;;;;;;935958;149;27779;-79
2022/11/17 09:48:41;;;;;;;2.22;1.30;;;15.00;99.90;;;;;;935717;149;27391;-79
2022/11/17 09:51:07;;;;;;;3.02;1.02;;;15.00;99.90;;;;;;933690;149;27379;-79
2022/11/17 09:53:40;;;;;;;4.83;1.15;;;15.00;99.90;;;;;;935491;149;27346;-79
2022/11/17 09:56:06;;;;;;;2.02;0.98;;;15.10;99.80;;;;;;936211;149;27354;-79
2022/11/17 09:58:36;;;;;;;3.45;1.30;;;15.10;99.60;;;;;;935070;149;27425;-79
2022/11/17 10:01:02;;;;;;;2.95;1.20;;;15.20;99.40;;;;;;931925;149;27377;-80
2022/11/17 10:03:31;;;;;;;3.70;1.60;;;15.20;99.20;;;;;;936084;149;27354;-79
2022/11/17 10:05:58;;;;;;;3.85;1.12;;;15.20;99.50;;;;;;930522;149;27422;-78
2022/11/17 10:08:45;;;;;;;1.47;1.32;;;15.30;99.70;;;;;;921705;152;27376;-79
2022/11/17 10:14:15;;;;;;;3.33;1.10;;;15.30;99.40;;;;;;938784;149;27368;-79
2022/11/17 10:16:51;;;;;;;2.92;1.07;;;15.40;98.90;;;;;;940265;151;27913;-79
2022/11/17 10:19:32;;;;;;;1.90;1.02;;;15.40;98.90;;;;;;937236;151;27421;-78
2022/11/17 10:22:01;;;;;;;2.17;1.67;;;15.40;99.00;;;;;;938988;151;27298;-79
2022/11/17 10:24:36;;;;;;;2.45;1.10;;;15.40;98.80;;;;;;939892;149;27443;-79
2022/11/17 10:27:03;;;;;;;4.00;1.42;;;15.40;98.50;;;;;;939377;151;27468;-79
2022/11/17 10:29:30;;;;;;;4.15;1.55;;;15.40;97.90;;;;;;933392;151;27463;-79
2022/11/17 10:31:57;;;;;;;3.47;1.42;;;15.40;97.70;;;;;;938297;149;27430;-80
2022/11/17 10:34:30;;;;;;;4.90;1.85;;;15.40;97.60;;;;;;938196;149;27403;-79
2022/11/17 10:36:55;;;;;;;5.53;2.33;;;15.40;97.70;;;;;;936360;148;27368;-78
2022/11/17 10:39:34;;;;;;;3.42;1.20;;;15.40;97.90;;;;;;936810;148;27466;-79
2022/11/17 10:42:01;;;;;;;2.72;1.57;;;15.40;97.60;;;;;;939444;149;27429;-78
2022/11/17 10:44:27;;;;;;;4.10;1.50;;;15.40;97.60;;;;;;938302;151;27348;-79
2022/11/17 10:46:54;;;;;;;3.52;1.27;;;15.50;97.20;;;;;;938034;148;27611;-78
2022/11/17 10:49:29;;;;;;;3.62;1.45;;;15.50;97.60;;;;;;937971;151;27385;-80
2022/11/17 10:52:11;;;;;;;4.95;1.60;;;15.60;98.40;;;;;;936853;151;27336;-78
2022/11/17 10:54:37;;;;;;;4.55;1.50;;;15.70;98.80;;;;;;937464;151;27353;-78
2022/11/17 10:57:07;;;;;;;6.50;1.55;;;15.80;99.20;;;;;;937998;148;27830;-79
2022/11/17 10:59:42;;;;;;;3.27;1.47;;;15.90;98.80;;;;;;937774;151;27435;-79
2022/11/17 11:02:24;;;;;;;3.85;1.25;;;16.00;97.70;;;;;;937505;151;27460;-80
2022/11/17 11:04:50;;;;;;;4.22;2.35;;;16.10;96.70;;;;;;929644;148;27387;-79
2022/11/17 11:07:20;;;;;;;4.25;1.30;;;16.30;97.10;;;;;;947058;146;27391;-80
2022/11/17 11:10:14;;;;;;;3.70;1.40;;;16.40;96.60;;;;;;954176;146;27487;-78
2022/11/17 11:13:08;;;;;;;2.45;1.40;;;16.40;96.10;;;;;;956602;146;27816;-79
2022/11/17 11:15:35;;;;;;;1.02;0.70;;;16.60;95.80;;;;;;955066;146;27337;-79
2022/11/17 11:18:01;;;;;;;3.87;1.17;;;16.60;95.00;;;;;;955096;146;27351;-78
2022/11/17 11:20:40;;;;;;;4.03;1.30;;;16.70;93.70;;;;;;955437;146;27775;-78
2022/11/17 11:23:09;;;;;;;1.82;1.10;;;16.70;93.00;;;;;;936541;146;27385;-78
2022/11/17 11:25:36;;;;;;;2.15;1.05;;;16.70;92.70;;;;;;950400;146;27376;-78
2022/11/17 11:28:37;;;;;;;3.40;1.20;;;16.70;92.20;;;;;;952648;146;27316;-79
2022/11/17 11:31:31;;;;;;;2.42;1.37;;;16.70;92.10;;;;;;954872;146;27396;-79
2022/11/17 11:34:09;;;;;;;4.22;1.17;;;16.60;92.30;;;;;;952748;146;27289;-79
2022/11/17 11:36:44;;;;;;;4.00;1.20;;;16.60;92.20;;;;;;951787;146;27369;-79
2022/11/17 11:39:22;;;;;;;2.87;1.20;;;16.60;92.40;;;;;;945467;150;27439;-79
2022/11/17 11:42:03;;;;;;;1.35;1.15;;;16.50;92.10;;;;;;935777;149;27455;-79
2022/11/17 11:44:32;;;;;;;2.22;1.17;;;16.50;92.00;;;;;;953956;146;27340;-80
2022/11/17 11:47:08;;;;;;;2.00;1.20;;;16.50;92.10;;;;;;953889;146;27368;-79
2022/11/17 11:49:34;;;;;;;2.55;0.98;;;16.40;91.60;;;;;;954236;146;27320;-80
2022/11/17 11:52:01;;;;;;;3.42;1.40;;;16.40;92.30;;;;;;954643;146;27312;-79
2022/11/17 11:54:30;;;;;;;3.70;1.22;;;16.30;92.80;;;;;;953345;146;27301;-80
2022/11/17 11:56:57;;;;;;;2.05;1.00;;;16.30;93.30;;;;;;954514;146;27390;-79
2022/11/17 11:59:24;;;;;;;3.22;1.35;;;16.40;93.80;;;;;;954576;146;27456;-80
2022/11/17 12:02:02;;;;;;;2.83;1.25;;;16.40;93.10;;;;;;955259;146;27316;-80
2022/11/17 12:04:40;;;;;;;2.70;1.12;;;16.40;93.20;;;;;;947379;146;27276;-78
2022/11/17 12:07:13;;;;;;;4.40;1.22;;;16.40;92.50;;;;;;950410;146;27395;-79
2022/11/17 12:09:48;;;;;;;3.02;1.42;;;16.30;92.30;;;;;;937944;148;27374;-79
2022/11/17 12:12:15;;;;;;;2.20;1.07;;;16.30;92.20;;;;;;935526;148;27398;-80
2022/11/17 12:14:41;;;;;;;2.80;1.27;;;16.20;92.40;;;;;;937834;148;27347;-79
2022/11/17 12:17:22;;;;;;;3.58;1.25;;;16.10;92.40;;;;;;934767;148;27390;-79
2022/11/17 12:19:47;;;;;;;3.70;1.02;;;16.00;92.40;;;;;;936561;148;27434;-78
2022/11/17 12:22:28;;;;;;;4.53;1.37;;;15.90;92.60;;;;;;937411;148;27311;-78
2022/11/17 12:25:03;;;;;;;2.75;1.12;;;15.70;93.00;;;;;;938514;148;27396;-80
2022/11/17 12:27:33;;;;;;;2.37;1.25;;;15.50;93.40;;;;;;935090;148;27857;-79
2022/11/17 12:29:59;;;;;;;1.90;1.30;;;15.40;94.00;;;;;;937649;148;27341;-79
2022/11/17 12:32:44;;;;;;;3.77;1.10;;;15.20;94.80;;;;;;937596;148;27344;-79
2022/11/17 12:35:29;;;;;;;4.40;1.20;;;15.10;95.50;;;;;;936638;148;27406;-79
2022/11/17 12:38:16;;;;;;;4.00;1.10;;;15.00;95.90;;;;;;936375;148;27917;-79
2022/11/17 12:40:48;;;;;;;2.52;1.10;;;14.90;96.30;;;;;;936306;148;27287;-79
2022/11/17 12:43:15;;;;;;;1.57;1.00;;;14.80;96.70;;;;;;939556;148;27364;-78
2022/11/17 12:46:06;;;;;;;2.65;1.15;;;14.80;97.10;;;;;;937724;148;27349;-78
2022/11/17 12:48:33;;;;;;;3.12;1.80;;;14.70;97.40;;;;;;938046;148;27911;-79
2022/11/17 12:51:37;;;;;;;2.25;0.88;;;14.70;97.80;;;;;;938342;148;27343;-79
2022/11/17 12:54:22;;;;;;;2.40;0.90;;;14.60;98.10;;;;;;939461;148;27365;-78
2022/11/17 12:56:54;;;;;;;1.17;0.98;;;14.60;98.30;;;;;;937089;148;27480;-78
2022/11/17 12:59:42;;;;;;;2.67;0.78;;;14.60;98.40;;;;;;937595;148;27345;-78
2022/11/17 13:02:14;;;;;;;1.67;0.78;;;14.60;98.50;;;;;;936379;148;27733;-79
2022/11/17 13:04:49;;;;;;;2.70;0.88;;;14.60;98.40;;;;;;935558;148;27364;-79
2022/11/17 13:07:22;;;;;;;1.87;1.03;;;14.50;98.30;;;;;;936033;148;27343;-78
2022/11/17 13:09:51;;;;;;;3.17;1.12;;;14.50;98.30;;;;;;936378;148;27379;-78
2022/11/17 13:12:21;;;;;;;1.30;0.80;;;14.40;98.70;;;;;;937537;148;27357;-78
2022/11/17 13:15:02;;;;;;;1.12;0.75;;;14.40;99.10;;;;;;937202;148;28002;-78
2022/11/17 13:17:32;;;;;;;1.95;0.90;;;14.40;99.30;;;;;;936573;148;27337;-78
2022/11/17 13:20:01;;;;;;;1.43;0.90;;;14.40;99.50;;;;;;935555;149;27455;-78
2022/11/17 13:22:28;;;;;;;0.82;0.60;;;14.40;99.70;;;;;;934768;149;27460;-78
2022/11/17 13:24:56;;;;;;;2.45;1.05;;;14.40;99.90;;;;;;935972;149;27369;-78
2022/11/17 13:27:27;;;;;;;3.37;1.42;;;14.40;99.90;;;;;;934880;149;27376;-78
2022/11/17 13:30:14;;;;;;;2.40;1.00;;;14.40;99.90;;;;;;935826;149;27422;-78
2022/11/17 13:32:41;;;;;;;3.85;1.25;;;14.40;99.90;;;;;;935394;149;27301;-78